Time;durP1;ratioP1;P1;durP2;ratioP2;P2;SDS_P1;SDS_P2;PMS_P1;PMS_P2;Temp;Humidity;BMP_temperature;BMP_pressure;BME280_temperature;BME280_humidity;BME280_pressure;Samples;Min_cycle;Max_cycle;Signal;HPM_P1;HPM_P2
2022/11/21 00:01:13;;;;;;;85.37;51.43;;;;;;;;;;5015371;28;20853;-37
2022/11/21 00:03:39;;;;;;;90.00;54.17;;;;;;;;;;5012835;28;20524;-36
2022/11/21 00:06:05;;;;;;;83.10;52.10;;;;;;;;;;5012245;28;20448;-37
2022/11/21 00:08:31;;;;;;;89.27;53.30;;;;;;;;;;5013092;28;20471;-37
2022/11/21 00:11:01;;;;;;;81.13;51.90;;;;;;;;;;5018382;28;20471;-37
2022/11/21 00:13:27;;;;;;;76.03;49.40;;;;;;;;;;5012773;28;20419;-36
2022/11/21 00:15:53;;;;;;;81.03;49.97;;;;;;;;;;5014670;28;21187;-35
2022/11/21 00:18:19;;;;;;;88.70;53.30;;;;;;;;;;5012224;28;20426;-36
2022/11/21 00:20:45;;;;;;;82.80;50.90;;;;;;;;;;5010752;28;20430;-37
2022/11/21 00:23:12;;;;;;;78.63;48.70;;;;;;;;;;5016127;28;21110;-37
2022/11/21 00:25:38;;;;;;;87.13;51.30;;;;;;;;;;5007710;28;20893;-37
2022/11/21 00:28:05;;;;;;;80.90;49.83;;;;;;;;;;5010856;28;20559;-37
2022/11/21 00:30:31;;;;;;;78.33;52.47;;;;;;;;;;5006991;28;21044;-37
2022/11/21 00:33:00;;;;;;;94.43;64.37;;;;;;;;;;5003530;28;20766;-37
2022/11/21 00:35:26;;;;;;;88.17;62.87;;;;;;;;;;5005813;28;21467;-37
2022/11/21 00:37:52;;;;;;;91.43;62.10;;;;;;;;;;5010840;28;21015;-37
2022/11/21 00:40:19;;;;;;;85.03;62.13;;;;;;;;;;5007582;28;20423;-36
2022/11/21 00:42:45;;;;;;;85.03;59.03;;;;;;;;;;5012835;28;20452;-36
2022/11/21 00:45:11;;;;;;;82.23;56.30;;;;;;;;;;5007064;28;20446;-36
2022/11/21 00:47:37;;;;;;;62.53;43.57;;;;;;;;;;5010270;28;21199;-37
2022/11/21 00:50:03;;;;;;;60.47;43.43;;;;;;;;;;5004600;28;20865;-37
2022/11/21 00:52:29;;;;;;;62.33;43.40;;;;;;;;;;5007995;28;20634;-37
2022/11/21 00:54:55;;;;;;;61.23;42.87;;;;;;;;;;5011759;28;20972;-36
2022/11/21 00:57:21;;;;;;;63.77;42.60;;;;;;;;;;5012467;28;20735;-36
2022/11/21 00:59:47;;;;;;;67.57;46.00;;;;;;;;;;5008588;28;20445;-36
2022/11/21 01:02:14;;;;;;;70.80;47.00;;;;;;;;;;5012130;28;20745;-37
2022/11/21 01:04:40;;;;;;;69.57;48.37;;;;;;;;;;5011361;28;20898;-36
2022/11/21 01:07:06;;;;;;;61.57;43.80;;;;;;;;;;5000631;28;20512;-36
2022/11/21 01:09:32;;;;;;;59.10;42.30;;;;;;;;;;5002761;28;20429;-37
2022/11/21 01:11:59;;;;;;;69.37;46.40;;;;;;;;;;5015870;28;20826;-37
2022/11/21 01:14:26;;;;;;;70.07;46.23;;;;;;;;;;5009158;28;20435;-36
2022/11/21 01:16:52;;;;;;;64.30;45.30;;;;;;;;;;5007351;28;20442;-36
2022/11/21 01:19:18;;;;;;;61.77;42.37;;;;;;;;;;5011072;28;20893;-36
2022/11/21 01:21:44;;;;;;;54.40;40.23;;;;;;;;;;5018768;28;20440;-37
2022/11/21 01:24:11;;;;;;;61.03;40.47;;;;;;;;;;5011551;28;20465;-36
2022/11/21 01:26:37;;;;;;;63.13;43.87;;;;;;;;;;5011724;28;20453;-37
2022/11/21 01:29:03;;;;;;;57.97;40.23;;;;;;;;;;5012854;28;20778;-37
2022/11/21 01:31:29;;;;;;;51.80;36.50;;;;;;;;;;5018921;28;20433;-37
2022/11/21 01:33:58;;;;;;;48.30;35.67;;;;;;;;;;5010327;28;20427;-36
2022/11/21 01:36:33;;;;;;;50.73;35.83;;;;;;;;;;5013215;28;20587;-36
2022/11/21 01:39:01;;;;;;;56.37;38.37;;;;;;;;;;5009269;28;20469;-36
2022/11/21 01:41:35;;;;;;;53.67;39.20;;;;;;;;;;5012544;28;20564;-36
2022/11/21 01:44:02;;;;;;;56.43;40.60;;;;;;;;;;5009769;28;20997;-35
2022/11/21 01:46:28;;;;;;;51.10;36.80;;;;;;;;;;5009318;28;20665;-36
2022/11/21 01:48:54;;;;;;;62.00;41.73;;;;;;;;;;5014356;28;20437;-36
2022/11/21 01:51:23;;;;;;;54.03;42.17;;;;;;;;;;5006597;28;20892;-35
2022/11/21 01:54:01;;;;;;;60.10;46.73;;;;;;;;;;5010763;28;20527;-36
2022/11/21 01:56:28;;;;;;;54.27;41.77;;;;;;;;;;5016376;28;20604;-36
2022/11/21 01:58:56;;;;;;;56.70;42.93;;;;;;;;;;5016595;28;22067;-36
2022/11/21 02:01:23;;;;;;;51.67;40.03;;;;;;;;;;5011835;28;20425;-36
2022/11/21 02:03:49;;;;;;;59.33;44.37;;;;;;;;;;5018314;28;20462;-36
2022/11/21 02:06:16;;;;;;;62.73;49.07;;;;;;;;;;5018324;28;20453;-36
2022/11/21 02:08:42;;;;;;;61.97;46.97;;;;;;;;;;5013366;28;20438;-36
2022/11/21 02:11:11;;;;;;;66.50;49.33;;;;;;;;;;5012463;28;20565;-36
2022/11/21 02:13:37;;;;;;;72.43;53.87;;;;;;;;;;5017207;28;20438;-36
2022/11/21 02:16:04;;;;;;;72.63;52.27;;;;;;;;;;5018373;28;20914;-36
2022/11/21 02:18:30;;;;;;;75.93;56.00;;;;;;;;;;5011124;28;20439;-36
2022/11/21 02:21:02;;;;;;;77.23;56.67;;;;;;;;;;5015453;28;21317;-36
2022/11/21 02:23:31;;;;;;;78.67;56.60;;;;;;;;;;5015128;28;21280;-35
2022/11/21 02:25:57;;;;;;;68.23;51.00;;;;;;;;;;5006044;28;21042;-36
2022/11/21 02:28:24;;;;;;;67.27;52.37;;;;;;;;;;5008201;28;20432;-36
2022/11/21 02:30:50;;;;;;;72.83;53.57;;;;;;;;;;5006850;28;20482;-36
2022/11/21 02:33:16;;;;;;;77.93;57.40;;;;;;;;;;5006050;28;20427;-36
2022/11/21 02:35:43;;;;;;;63.67;48.67;;;;;;;;;;5002531;28;20439;-35
2022/11/21 02:38:15;;;;;;;66.60;49.93;;;;;;;;;;5003176;28;20954;-36
2022/11/21 02:40:43;;;;;;;65.23;50.37;;;;;;;;;;5000374;28;20928;-35
2022/11/21 02:43:18;;;;;;;52.90;40.27;;;;;;;;;;4999554;28;20549;-36
2022/11/21 02:45:45;;;;;;;47.13;36.23;;;;;;;;;;4999733;28;20547;-36
2022/11/21 02:48:11;;;;;;;44.50;32.43;;;;;;;;;;5000649;28;20422;-36
2022/11/21 02:50:42;;;;;;;37.07;29.47;;;;;;;;;;4999195;28;20427;-35
2022/11/21 02:53:10;;;;;;;40.07;29.90;;;;;;;;;;5000427;28;20529;-35
2022/11/21 02:55:36;;;;;;;42.53;31.10;;;;;;;;;;5002410;28;20836;-36
2022/11/21 02:58:03;;;;;;;41.00;31.00;;;;;;;;;;5008242;28;20430;-36
2022/11/21 03:00:29;;;;;;;44.40;32.20;;;;;;;;;;5009884;28;20425;-36
2022/11/21 03:02:55;;;;;;;41.17;29.97;;;;;;;;;;5010580;28;20464;-36
2022/11/21 03:05:22;;;;;;;46.27;32.93;;;;;;;;;;5017183;28;20462;-36
2022/11/21 03:07:48;;;;;;;43.20;31.87;;;;;;;;;;5011572;28;21211;-36
2022/11/21 03:10:15;;;;;;;44.60;32.80;;;;;;;;;;5007236;28;20562;-36
2022/11/21 03:12:41;;;;;;;40.73;30.57;;;;;;;;;;5016419;28;20600;-36
2022/11/21 03:15:09;;;;;;;39.37;29.70;;;;;;;;;;5018598;28;21406;-36
2022/11/21 03:17:35;;;;;;;36.10;27.17;;;;;;;;;;5013489;28;20863;-36
2022/11/21 03:20:01;;;;;;;38.47;26.87;;;;;;;;;;5011474;28;20445;-36
2022/11/21 03:22:27;;;;;;;31.40;23.40;;;;;;;;;;5014654;28;21362;-36
2022/11/21 03:24:53;;;;;;;32.40;24.20;;;;;;;;;;5006029;28;20507;-35
2022/11/21 03:27:19;;;;;;;34.50;25.83;;;;;;;;;;5009332;28;20473;-35
2022/11/21 03:29:45;;;;;;;32.90;24.53;;;;;;;;;;5011552;28;20432;-36
2022/11/21 03:32:11;;;;;;;31.37;24.17;;;;;;;;;;5011999;28;20904;-36
2022/11/21 03:34:37;;;;;;;34.23;23.30;;;;;;;;;;5007055;28;20427;-36
2022/11/21 03:37:03;;;;;;;30.83;23.77;;;;;;;;;;5008177;28;20488;-35
2022/11/21 03:39:30;;;;;;;27.33;21.93;;;;;;;;;;5009870;28;21259;-36
2022/11/21 03:41:56;;;;;;;32.37;23.63;;;;;;;;;;5011374;28;20434;-36
2022/11/21 03:44:22;;;;;;;27.10;21.77;;;;;;;;;;5008652;28;21071;-36
2022/11/21 03:46:48;;;;;;;31.13;24.00;;;;;;;;;;5006167;28;20458;-36
2022/11/21 03:49:17;;;;;;;33.90;23.90;;;;;;;;;;5011379;28;20434;-36
2022/11/21 03:51:43;;;;;;;37.97;28.77;;;;;;;;;;5008471;28;21029;-36
2022/11/21 03:54:10;;;;;;;33.10;25.33;;;;;;;;;;5009128;28;20847;-36
2022/11/21 03:56:38;;;;;;;35.67;27.97;;;;;;;;;;5017165;28;20751;-36
2022/11/21 03:59:04;;;;;;;38.70;30.47;;;;;;;;;;5016340;28;20491;-35
2022/11/21 04:01:30;;;;;;;37.00;29.53;;;;;;;;;;5010060;28;20874;-36
2022/11/21 04:03:56;;;;;;;43.20;34.50;;;;;;;;;;5005599;28;21449;-35
2022/11/21 04:06:23;;;;;;;44.43;35.37;;;;;;;;;;5005561;28;20449;-36
2022/11/21 04:08:49;;;;;;;47.73;37.23;;;;;;;;;;5013006;28;20513;-35
2022/11/21 04:11:15;;;;;;;42.27;33.03;;;;;;;;;;5013065;28;20418;-36
2022/11/21 04:13:41;;;;;;;45.90;34.67;;;;;;;;;;5012614;28;20864;-36
2022/11/21 04:16:07;;;;;;;45.27;35.10;;;;;;;;;;5012135;28;20427;-36
2022/11/21 04:18:34;;;;;;;51.00;37.20;;;;;;;;;;5010764;28;20456;-35
2022/11/21 04:21:04;;;;;;;38.70;30.10;;;;;;;;;;5008393;28;21344;-36
2022/11/21 04:23:31;;;;;;;44.00;33.50;;;;;;;;;;5004301;28;20924;-36
2022/11/21 04:25:57;;;;;;;37.17;29.53;;;;;;;;;;5009873;28;21345;-36
2022/11/21 04:28:23;;;;;;;43.70;31.90;;;;;;;;;;5011602;28;20423;-37
2022/11/21 04:30:50;;;;;;;42.33;32.43;;;;;;;;;;5014813;28;20426;-36
2022/11/21 04:33:17;;;;;;;41.27;31.53;;;;;;;;;;5010624;28;20589;-36
2022/11/21 04:35:43;;;;;;;40.90;30.50;;;;;;;;;;5008419;28;20434;-36
2022/11/21 04:38:09;;;;;;;40.07;31.73;;;;;;;;;;5010013;28;21350;-36
2022/11/21 04:40:35;;;;;;;41.80;33.40;;;;;;;;;;5012449;28;20877;-36
2022/11/21 04:43:01;;;;;;;49.27;38.50;;;;;;;;;;5008609;28;21232;-36
2022/11/21 04:45:28;;;;;;;58.30;43.30;;;;;;;;;;5014103;28;20760;-36
2022/11/21 04:47:54;;;;;;;52.07;41.57;;;;;;;;;;5007397;28;20955;-36
2022/11/21 04:50:20;;;;;;;62.53;49.50;;;;;;;;;;5009292;28;20425;-36
2022/11/21 04:52:50;;;;;;;62.07;47.83;;;;;;;;;;5014330;28;20708;-36
2022/11/21 04:55:16;;;;;;;65.97;51.47;;;;;;;;;;5009443;28;20428;-35
2022/11/21 04:57:42;;;;;;;62.17;47.80;;;;;;;;;;5005725;28;20427;-36
2022/11/21 05:00:09;;;;;;;66.97;50.87;;;;;;;;;;5007280;28;21304;-36
2022/11/21 05:02:35;;;;;;;77.60;56.83;;;;;;;;;;5012471;28;21114;-36
2022/11/21 05:05:01;;;;;;;59.83;45.37;;;;;;;;;;5010107;28;20488;-36
2022/11/21 05:07:27;;;;;;;53.23;42.93;;;;;;;;;;5000948;28;20462;-36
2022/11/21 05:09:53;;;;;;;56.47;45.50;;;;;;;;;;5009857;28;20515;-36
2022/11/21 05:15:04;;;;;;;55.30;42.10;;;;;;;;;;5009903;28;20491;-36
2022/11/21 05:17:30;;;;;;;52.13;41.67;;;;;;;;;;5008670;28;20511;-36
2022/11/21 05:19:56;;;;;;;63.20;47.53;;;;;;;;;;5003255;28;20446;-36
2022/11/21 05:22:22;;;;;;;59.40;44.53;;;;;;;;;;5007969;28;20434;-36
2022/11/21 05:24:48;;;;;;;60.27;44.30;;;;;;;;;;5009922;28;20430;-37
2022/11/21 05:27:14;;;;;;;58.90;44.83;;;;;;;;;;5000079;28;20905;-36
2022/11/21 05:29:41;;;;;;;61.17;45.83;;;;;;;;;;5005887;28;20882;-36
2022/11/21 05:32:07;;;;;;;60.67;45.13;;;;;;;;;;5005134;28;20797;-36
2022/11/21 05:34:33;;;;;;;68.13;48.43;;;;;;;;;;5003924;28;20444;-36
2022/11/21 05:36:59;;;;;;;79.17;54.93;;;;;;;;;;5000415;28;21059;-36
2022/11/21 05:39:25;;;;;;;69.53;48.17;;;;;;;;;;5007863;28;20483;-37
2022/11/21 05:41:51;;;;;;;61.03;44.60;;;;;;;;;;4999859;28;20438;-36
2022/11/21 05:44:17;;;;;;;70.67;48.07;;;;;;;;;;5005383;28;21088;-36
2022/11/21 05:46:44;;;;;;;70.00;45.23;;;;;;;;;;5008066;28;20454;-36
2022/11/21 05:49:10;;;;;;;78.60;51.47;;;;;;;;;;5005718;28;20429;-37
2022/11/21 05:51:36;;;;;;;90.87;58.23;;;;;;;;;;5002137;28;20619;-36
2022/11/21 05:54:03;;;;;;;76.63;51.50;;;;;;;;;;5005204;28;20842;-36
2022/11/21 05:56:29;;;;;;;89.00;57.40;;;;;;;;;;5004048;28;20453;-36
2022/11/21 05:58:55;;;;;;;84.50;56.20;;;;;;;;;;5008989;28;21140;-37
2022/11/21 06:04:07;;;;;;;99.50;61.40;;;;;;;;;;5003341;28;20498;-36
2022/11/21 06:06:33;;;;;;;83.90;54.93;;;;;;;;;;5006944;28;20867;-36
2022/11/21 06:08:59;;;;;;;98.57;60.83;;;;;;;;;;5017956;28;20437;-36
2022/11/21 06:11:26;;;;;;;86.47;59.10;;;;;;;;;;5013977;28;20434;-36
2022/11/21 06:13:52;;;;;;;104.07;63.97;;;;;;;;;;5011720;28;20551;-37
2022/11/21 06:16:19;;;;;;;102.10;65.57;;;;;;;;;;5010714;28;20442;-36
2022/11/21 06:18:51;;;;;;;95.30;62.73;;;;;;;;;;5011168;28;20446;-36
2022/11/21 06:21:18;;;;;;;104.90;65.90;;;;;;;;;;5011195;28;21247;-36
2022/11/21 06:23:45;;;;;;;92.17;58.47;;;;;;;;;;5004338;28;20990;-36
2022/11/21 06:26:13;;;;;;;86.63;57.37;;;;;;;;;;5004898;28;20458;-36
2022/11/21 06:28:39;;;;;;;79.43;54.13;;;;;;;;;;5012378;28;20425;-36
2022/11/21 06:31:07;;;;;;;101.83;61.87;;;;;;;;;;5007947;28;20426;-36
2022/11/21 06:33:33;;;;;;;81.23;53.90;;;;;;;;;;5002136;28;20418;-36
